Historyczne dane pomiarowe

Dodano dane terminowe – wersja testowa.

Dane z okresu 1951-2019

Wersja bazy: 1.34 [2019-03-16, lista zmian], aktualizacja planowana na 2019-04-15

Dane meteo z obszaru Polski uzyskane na podstawie danych udostępnionych przez Instytut Meteorologii i Gospodarki Wodnej – Państwowy Instytut Badawczy.

 

Wybierz Datę:    

       

TemperaturaWilgotnośćWiatrCiśnienieOpadyŚniegCzas trwania zjawisk
 Stacja t tx tn tng RH VA  wxwx mslp ppp RRR   cm mm wxwxwxwxwxwxwx
1961-08-14 13.7 18.8 9.2 14.8 85.8- 4.7 1.7---- 0.0------------
1961-08-13 14.6 16.4 13.6 13.5 81.3- 7.7 4.3---- 0.0------------
1961-08-12 17.3 22.5 15.0 14.5 89.0- 6.7 1.7---- 14.4------------
1961-08-11 19.2 24.0 17.1 14.9 91.8- 6.7 3.3---- 2.4------------
1961-08-10 21.2 26.8 16.9 15.5 90.0- 5.7 3.7---- 13.8------------
1961-08-09 22.4 28.2 15.6 12.8 80.3- 4.7 2.0---- 2.1------------
1961-08-08 18.7 23.5 13.6 9.7 76.8- 4.3 1.3---- 0.0------------
1961-08-07 20.4 24.4 17.4 12.7 78.8- 7.3 2.7---- 0.1------------
1961-08-06 23.1 30.6 14.7 9.8 69.0- 0.3 3.3---- 0.0------------
1961-08-05 18.2 23.6 15.6 2.5 79.5- 4.3 2.3---- 0.0------------
1961-08-04 16.3 20.2 8.7 3.2 69.3- 5.3 3.3---- 0.0------------
1961-08-03 15.9 20.4 13.9 10.5 82.5- 5.3 2.7---- 0.0------------
1961-08-02 19.0 25.5 10.3 6.2 71.5- 2.7 3.7---- 0.0------------
1961-08-01 13.0 18.9 11.5 11.0 89.5- 5.7 6.3---- 0.4------------
1961-07-31 13.7 15.8 11.5 11.6 93.8- 7.7 4.3---- 9.0------------
1961-07-30 12.2 13.5 10.7 10.2 94.8- 8.0 2.3---- 18.3------------
1961-07-29 13.9 18.3 12.1 12.5 86.8- 7.7 2.7---- 0.7------------
1961-07-28 17.5 21.4 10.6 12.1 84.8- 6.7 3.0---- 26.5------------
1961-07-27 19.7 25.1 14.8 9.1 73.0- 7.0 3.7---- 0.4------------
1961-07-26 16.7 22.0 10.8 8.0 76.5- 8.0 3.7---- 0.0------------
1961-07-25 14.5 17.7 10.2 7.1 77.8- 6.7 4.0---- 0.0------------
1961-07-24 13.8 17.8 12.1 9.9 79.5- 4.3 4.3---- 0.0------------
1961-07-23 15.0 18.0 12.3 10.1 81.8- 7.0 2.7---- 0.0------------
1961-07-22 15.1 19.6 12.9 12.5 86.0- 6.7 3.7---- 0.0------------
1961-07-21 15.1 18.2 11.2 7.2 84.8- 7.7 3.3---- 6.6------------
1961-07-20 15.0 21.2 8.5 4.9 86.0- 6.0 2.3---- 5.5------------
1961-07-19 14.2 18.5 9.3 5.5 87.3- 3.3 1.0---- 2.2------------
1961-07-18 13.8 18.4 8.5 6.9 88.0- 5.0 4.0---- 0.0------------
1961-07-17 14.7 21.7 10.7 5.7 85.0- 3.0 3.0---- 2.3------------
1961-07-16 13.4 17.6 11.2 7.2 96.5- 6.0 3.0---- 13.1------------
1961-07-15 16.7 22.7 10.5 6.5 82.5- 4.0 1.7---- 9.6------------
1961-07-14 14.5 18.3 12.9 12.6 75.0- 5.3 4.7---- 0.0------------
1961-07-13 20.5 28.2 14.5 10.4 81.5- 6.7 3.0---- 13.1------------
1961-07-12 19.5 26.4 11.5 6.7 82.3- 4.3 1.0---- 0.0------------
1961-07-11 15.8 20.6 11.0 7.6 72.5- 5.3 2.3---- 8.4------------
1961-07-10 13.7 18.3 10.6 8.1 75.8- 7.0 3.7---- 0.0------------
1961-07-09 15.3 22.6 8.7 4.6 77.8- 5.0 3.7---- 0.0------------
1961-07-08 15.4 20.9 7.2 2.3 60.8- 3.0 2.7---- 0.0------------
1961-07-07 12.3 16.7 8.9 5.0 76.8- 7.0 4.0---- 0.0------------
1961-07-06 13.0 15.3 8.2 3.2 76.8- 5.3 3.3---- 1.3------------
1961-07-05 14.3 17.6 12.5 10.7 62.3- 5.0 2.7---- 0.0------------
1961-07-04 18.3 24.5 16.1 13.1 78.8- 7.7 3.7---- 7.6------------
1961-07-03 23.4 30.9 12.2 6.9 61.8- 1.0 2.0---- 0.0------------
1961-07-02 21.3 29.1 10.1 5.3 68.3- 4.0 0.7---- 0.0------------
1961-07-01 19.0 26.9 11.3 7.6 70.0- 1.0 1.7---- 0.0------------
1961-06-30 18.3 24.7 10.7 5.9 75.5- 0.3 2.7---- 0.0------------
1961-06-29 15.1 19.1 11.3 7.0 77.8- 2.0 4.3---- 0.0------------
1961-06-28 14.9 19.8 13.0 14.4 73.8- 5.0 5.7---- 1.3------------
1961-06-27 22.3 31.8 15.4 11.6 77.3- 5.7 3.0---- 15.8------------
1961-06-26 22.0 28.0 14.7 9.7 72.5- 3.0 2.0---- 0.0------------
1961-06-25 20.8 27.9 14.7 9.9 68.5- 0.3 2.3---- 0.0------------
1961-06-24 17.5 22.5 12.2 8.4 71.3- 5.3 4.7---- 0.0------------
1961-06-23 17.8 23.2 14.9 13.9 73.3- 4.0 4.0---- 0.0------------
1961-06-22 16.8 22.5 6.4 5.4 67.0- 4.0 3.3---- 13.0------------
1961-06-21 15.7 23.7 6.3 1.1 71.5- 0.7 2.0---- 0.5------------
1961-06-20 14.2 19.8 9.7 4.2 73.5- 1.7 3.0---- 0.0------------
1961-06-19 16.2 21.0 14.7 12.5 77.5- 5.7 3.0---- 0.0------------
1961-06-18 20.2 26.5 13.0 8.4 63.0- 2.7 3.0---- 0.0------------
1961-06-17 17.3 22.5 8.1 9.1 72.8- 4.3 3.7---- 0.0------------
1961-06-16 12.6 17.3 10.3 8.2 85.5- 5.0 2.7---- 0.0------------
374.7 ms

 

Źródłem pochodzenia danych jest Instytut Meteorologii i Gospodarki Wodnej – Państwowy Instytut Badawczy. Dane Instytutu Meteorologii i Gospodarki Wodnej – Państwowego Instytutu Badawczego zostały przetworzone.

Dane źródłowe można odnaleźć na stronie https://dane.imgw.pl